KSQI/SQI METAR and TAF weather

Enter ICAO airport designator
Station Type Date Time Source
KSQI METAR 2019/08/24 21:56 UTC NOAA

KSQI 242156Z AUTO 10009KT 10SM FEW002 SCT049 24/13 A3018 RMK AO2 SLP083 T02390133


Station Type Date Time Source
KSQI Decoded METAR 2019/08/24 21:56 UTC NOAA

Station name not available
Aug 24, 2019 - 05:56 PM EDT / 2019.08.24 2156 UTC
Wind: from the E (100 degrees) at 10 MPH (9 KT):0
Visibility: 10 mile(s):0
Sky conditions: partly cloudy
Temperature: 75.0 F (23.9 C)
Dew Point: 55.9 F (13.3 C)
Relative Humidity: 51%
Pressure (altimeter): 30.18 in. Hg (1022 hPa)
ob: KSQI 242156Z AUTO 10009KT 10SM FEW002 SCT049 24/13 A3018 RMK AO2 SLP083 T02390133
cycle: 22

Station Type Date Time Source
KSQI TAF UTC NOAA

Error!

Example: see airport list